createdAt,value
2019-06-01T00:00:20.567Z,13.90
2019-06-01T00:02:56.113Z,14.00
2019-06-01T00:05:21.476Z,13.90
2019-06-01T00:07:51.025Z,13.90
2019-06-01T00:10:21.149Z,13.80
2019-06-01T00:12:50.823Z,13.80
2019-06-01T00:15:20.410Z,13.80
2019-06-01T00:17:50.068Z,13.90
2019-06-01T00:20:19.980Z,13.80
2019-06-01T00:22:49.536Z,13.70
2019-06-01T00:25:18.992Z,13.70
2019-06-01T00:27:48.783Z,13.60
2019-06-01T00:30:26.935Z,13.60
2019-06-01T00:32:52.650Z,13.60
2019-06-01T00:35:22.179Z,13.60
2019-06-01T00:37:51.864Z,13.60
2019-06-01T00:40:21.537Z,13.60
2019-06-01T00:42:52.343Z,13.50
2019-06-01T00:45:22.039Z,13.50
2019-06-01T00:47:53.265Z,13.40
2019-06-01T00:50:22.850Z,13.40
2019-06-01T00:52:53.423Z,13.40
2019-06-01T00:55:23.172Z,13.40
2019-06-01T00:57:53.959Z,13.40
2019-06-01T01:00:42.534Z,13.40
2019-06-01T01:02:58.058Z,13.40
2019-06-01T01:05:28.245Z,13.30
2019-06-01T01:07:57.812Z,13.30
2019-06-01T01:10:27.485Z,13.30
2019-06-01T01:12:58.664Z,13.20
2019-06-01T01:15:28.097Z,13.20
2019-06-01T01:17:57.750Z,13.10
2019-06-01T01:20:27.386Z,13.10
2019-06-01T01:22:57.024Z,13.10
2019-06-01T01:25:26.638Z,12.90
2019-06-01T01:27:57.717Z,12.90
2019-06-01T01:30:27.794Z,12.90
2019-06-01T01:32:59.114Z,12.90
2019-06-01T01:35:34.483Z,12.80
2019-06-01T01:38:04.365Z,12.80
2019-06-01T01:40:33.919Z,12.80
2019-06-01T01:43:03.530Z,12.80
2019-06-01T01:45:33.293Z,12.80
2019-06-01T01:48:02.944Z,12.70
2019-06-01T01:50:32.515Z,12.70
2019-06-01T01:53:03.338Z,12.70
2019-06-01T01:55:33.059Z,12.70
2019-06-01T01:58:02.624Z,12.70
2019-06-01T02:00:36.920Z,12.70
2019-06-01T02:03:07.866Z,12.60
2019-06-01T02:05:37.770Z,12.70
2019-06-01T02:08:09.114Z,12.60
2019-06-01T02:10:44.495Z,12.60
2019-06-01T02:13:15.870Z,12.60
2019-06-01T02:15:45.447Z,12.60
2019-06-01T02:18:15.014Z,12.60
2019-06-01T02:20:50.528Z,12.50
2019-06-01T02:23:20.080Z,12.50
2019-06-01T02:25:49.669Z,12.40
2019-06-01T02:28:19.283Z,12.50
2019-06-01T02:30:48.857Z,12.40
2019-06-01T02:33:18.521Z,12.40
2019-06-01T02:35:48.102Z,12.40
2019-06-01T02:38:19.283Z,12.40
2019-06-01T02:40:50.529Z,12.40
2019-06-01T02:43:20.290Z,12.30
2019-06-01T02:45:50.050Z,12.30
2019-06-01T02:48:19.679Z,12.30
2019-06-01T02:50:49.205Z,12.30
2019-06-01T02:53:18.701Z,12.30
2019-06-01T02:55:48.164Z,12.20
2019-06-01T02:58:17.719Z,12.20
2019-06-01T03:03:23.948Z,12.20
2019-06-01T03:05:55.244Z,12.20
2019-06-01T03:08:32.871Z,12.20
2019-06-01T03:11:05.997Z,12.20
2019-06-01T03:13:39.991Z,12.10
2019-06-01T03:16:12.954Z,12.10
2019-06-01T03:18:46.219Z,12.10
2019-06-01T03:21:22.104Z,12.10
2019-06-01T03:23:56.597Z,12.10
2019-06-01T03:26:30.616Z,12.20
2019-06-01T03:29:03.644Z,12.10
2019-06-01T03:31:34.734Z,11.90
2019-06-01T03:34:06.948Z,12.00
2019-06-01T03:36:37.427Z,11.90
2019-06-01T03:39:08.489Z,11.90
2019-06-01T03:41:38.812Z,11.90
2019-06-01T03:44:08.561Z,11.90
2019-06-01T03:46:39.672Z,11.90
2019-06-01T03:49:09.820Z,11.90
2019-06-01T03:51:40.962Z,12.00
2019-06-01T03:54:13.170Z,12.00
2019-06-01T03:56:42.786Z,12.00
2019-06-01T03:59:12.289Z,12.00
2019-06-01T04:02:01.064Z,12.10
2019-06-01T04:04:30.756Z,12.10
2019-06-01T04:07:01.257Z,12.10
2019-06-01T04:09:30.889Z,12.00
2019-06-01T04:12:01.451Z,12.00
2019-06-01T04:14:30.965Z,12.00
2019-06-01T04:17:01.892Z,11.90
2019-06-01T04:19:31.503Z,12.00
2019-06-01T04:22:20.324Z,12.10
2019-06-01T04:24:49.832Z,12.10
2019-06-01T04:27:19.335Z,12.20
2019-06-01T04:29:48.947Z,12.30
2019-06-01T04:32:18.506Z,12.40
2019-06-01T04:34:47.845Z,12.50
2019-06-01T04:37:17.355Z,12.60
2019-06-01T04:39:46.876Z,12.70
2019-06-01T04:42:16.344Z,12.90
2019-06-01T04:44:45.873Z,12.90
2019-06-01T04:47:15.358Z,13.00
2019-06-01T04:49:44.893Z,13.10
2019-06-01T04:52:15.262Z,13.20
2019-06-01T04:54:44.771Z,13.30
2019-06-01T04:57:15.115Z,13.50
2019-06-01T04:59:44.856Z,13.60
2019-06-01T05:02:15.222Z,13.60
2019-06-01T05:04:46.350Z,13.70
2019-06-01T05:07:18.716Z,13.70
2019-06-01T05:09:48.280Z,13.80
2019-06-01T05:12:17.702Z,13.90
2019-06-01T05:14:47.250Z,13.90
2019-06-01T05:17:16.965Z,13.70
2019-06-01T05:19:46.418Z,13.60
2019-06-01T05:22:16.726Z,13.80
2019-06-01T05:24:46.465Z,14.00
2019-06-01T05:27:17.224Z,14.20
2019-06-01T05:29:46.824Z,14.40
2019-06-01T05:32:16.742Z,14.40
2019-06-01T05:34:47.667Z,14.40
2019-06-01T05:37:18.621Z,14.50
2019-06-01T05:39:48.295Z,14.70
2019-06-01T05:42:18.991Z,15.00
2019-06-01T05:44:48.667Z,15.00
2019-06-01T05:47:18.430Z,14.90
2019-06-01T05:49:48.342Z,15.00
2019-06-01T05:52:18.810Z,15.10
2019-06-01T05:54:48.445Z,15.20
2019-06-01T05:57:19.329Z,15.30
2019-06-01T05:59:49.148Z,15.60
2019-06-01T06:02:19.571Z,15.90
2019-06-01T06:05:09.087Z,16.10
2019-06-01T06:07:39.002Z,16.40
2019-06-01T06:10:09.574Z,16.60
2019-06-01T06:12:39.068Z,16.80
2019-06-01T06:15:09.527Z,16.90
2019-06-01T06:17:39.010Z,17.10
2019-06-01T06:20:09.746Z,16.90
2019-06-01T06:22:41.202Z,16.70
2019-06-01T06:25:10.857Z,16.70
2019-06-01T06:27:40.294Z,16.80
2019-06-01T06:30:10.429Z,17.10
2019-06-01T06:32:39.889Z,16.90
2019-06-01T06:35:09.810Z,17.00
2019-06-01T06:37:42.252Z,17.20
2019-06-01T06:40:13.789Z,17.70
2019-06-01T06:42:43.354Z,17.80
2019-06-01T06:45:14.600Z,18.30
2019-06-01T06:47:44.076Z,18.80
2019-06-01T06:50:17.582Z,19.10
2019-06-01T06:52:47.365Z,19.20
2019-06-01T06:55:23.973Z,19.40
2019-06-01T06:57:53.621Z,19.80
2019-06-01T07:00:24.788Z,20.00
2019-06-01T07:03:00.510Z,20.30
2019-06-01T07:05:31.501Z,20.40
2019-06-01T07:08:01.159Z,20.50
2019-06-01T07:10:30.924Z,20.60
2019-06-01T07:13:09.197Z,20.20
2019-06-01T07:15:38.747Z,20.40
2019-06-01T07:18:08.198Z,20.90
2019-06-01T07:20:37.704Z,21.30
2019-06-01T07:23:07.232Z,21.70
2019-06-01T07:25:36.772Z,21.60
2019-06-01T07:28:06.808Z,21.50
2019-06-01T07:30:49.873Z,21.30
2019-06-01T07:33:07.657Z,21.70
2019-06-01T07:35:37.187Z,23.50
2019-06-01T07:38:06.713Z,25.00
2019-06-01T07:40:36.218Z,24.80
2019-06-01T07:43:05.775Z,25.20
2019-06-01T07:45:35.485Z,25.20
2019-06-01T07:48:05.006Z,28.00
2019-06-01T07:50:34.553Z,30.70
2019-06-01T07:53:17.078Z,32.90
2019-06-01T07:55:46.563Z,33.60
2019-06-01T07:58:16.085Z,31.30
2019-06-01T08:00:45.591Z,32.40
2019-06-01T08:03:19.383Z,32.90
2019-06-01T08:05:48.961Z,33.50
2019-06-01T08:08:18.821Z,35.00
2019-06-01T08:10:48.438Z,31.00
2019-06-01T08:13:21.438Z,30.50
2019-06-01T08:15:51.055Z,32.60
2019-06-01T08:18:21.893Z,34.50
2019-06-01T08:20:51.444Z,33.10
2019-06-01T08:23:21.883Z,32.30
2019-06-01T08:25:51.553Z,30.00
2019-06-01T08:28:22.302Z,29.90
2019-06-01T08:30:51.948Z,33.00
2019-06-01T08:33:26.494Z,34.50
2019-06-01T08:35:54.114Z,34.60
2019-06-01T08:38:23.623Z,35.80
2019-06-01T08:40:53.111Z,36.70
2019-06-01T08:43:23.551Z,37.90
2019-06-01T08:45:53.168Z,35.80
2019-06-01T08:48:23.687Z,32.00
2019-06-01T08:50:53.308Z,30.90
2019-06-01T08:53:23.811Z,32.90
2019-06-01T08:55:53.422Z,33.80
2019-06-01T08:58:24.152Z,35.10
2019-06-01T09:00:53.803Z,36.70
2019-06-01T09:03:23.274Z,35.30
2019-06-01T09:05:52.788Z,34.90
2019-06-01T09:08:23.931Z,32.90
2019-06-01T09:10:53.523Z,32.70
2019-06-01T09:13:23.086Z,34.50
2019-06-01T09:15:52.611Z,35.50
2019-06-01T09:18:22.102Z,35.60
2019-06-01T09:20:51.566Z,35.90
2019-06-01T09:23:21.234Z,34.80
2019-06-01T09:25:50.710Z,34.90
2019-06-01T09:28:20.293Z,33.50
2019-06-01T09:30:52.766Z,34.10
2019-06-01T09:33:22.223Z,33.20
2019-06-01T09:35:55.943Z,31.70
2019-06-01T09:38:24.046Z,34.00
2019-06-01T09:40:53.556Z,36.00
2019-06-01T09:43:23.005Z,38.10
2019-06-01T09:45:53.447Z,38.20
2019-06-01T09:48:23.214Z,36.30
2019-06-01T09:50:52.677Z,35.90
2019-06-01T09:53:25.845Z,36.70
2019-06-01T09:55:55.305Z,34.50
2019-06-01T09:58:24.806Z,35.50
2019-06-01T10:00:54.357Z,34.00
2019-06-01T10:03:23.847Z,33.50
2019-06-01T10:06:01.767Z,33.40
2019-06-01T10:08:24.530Z,33.20
2019-06-01T10:10:54.003Z,33.00
2019-06-01T10:13:23.485Z,32.00
2019-06-01T10:15:53.124Z,30.70
2019-06-01T10:18:26.712Z,32.30
2019-06-01T10:20:53.822Z,32.90
2019-06-01T10:23:23.309Z,34.00
2019-06-01T10:25:52.785Z,34.50
2019-06-01T10:28:22.314Z,31.70
2019-06-01T10:30:51.796Z,31.70
2019-06-01T10:33:21.276Z,32.20
2019-06-01T10:35:50.800Z,31.60
2019-06-01T10:38:20.511Z,32.00
2019-06-01T10:40:50.176Z,33.60
2019-06-01T10:43:19.659Z,35.40
2019-06-01T10:45:49.469Z,36.60
2019-06-01T10:48:18.947Z,37.80
2019-06-01T10:50:48.449Z,38.10
2019-06-01T10:53:17.977Z,39.10
2019-06-01T10:55:47.585Z,38.90
2019-06-01T10:58:17.067Z,39.20
2019-06-01T11:00:50.867Z,37.50
2019-06-01T11:03:17.799Z,38.10
2019-06-01T11:05:47.464Z,38.60
2019-06-01T11:08:16.949Z,38.50
2019-06-01T11:10:46.459Z,36.70
2019-06-01T11:13:15.963Z,35.10
2019-06-01T11:15:45.509Z,34.20
2019-06-01T11:18:14.988Z,33.10
2019-06-01T11:20:44.564Z,33.60
2019-06-01T11:23:14.070Z,34.50
2019-06-01T11:25:43.765Z,37.00
2019-06-01T11:28:13.419Z,38.20
2019-06-01T11:30:43.979Z,37.00
2019-06-01T11:33:15.226Z,37.20
2019-06-01T11:35:45.459Z,36.90
2019-06-01T11:38:15.111Z,38.20
2019-06-01T11:41:03.917Z,36.80
2019-06-01T11:43:34.544Z,37.40
2019-06-01T11:46:04.129Z,37.90
2019-06-01T11:48:35.013Z,37.00
2019-06-01T11:51:04.828Z,35.30
2019-06-01T11:53:35.136Z,35.40
2019-06-01T11:56:05.046Z,34.90
2019-06-01T11:58:35.167Z,35.00
2019-06-01T12:01:04.929Z,36.50
2019-06-01T12:03:35.498Z,37.30
2019-06-01T12:06:05.991Z,36.90
2019-06-01T12:08:35.980Z,35.70
2019-06-01T12:11:14.601Z,33.80
2019-06-01T12:13:44.502Z,32.30
2019-06-01T12:16:14.077Z,32.10
2019-06-01T12:18:44.633Z,33.90
2019-06-01T12:21:14.317Z,33.50
2019-06-01T12:24:03.163Z,32.50
2019-06-01T12:26:32.700Z,32.10
2019-06-01T12:29:02.229Z,31.30
2019-06-01T12:31:31.778Z,32.20
2019-06-01T12:34:01.261Z,32.70
2019-06-01T12:36:30.766Z,32.80
2019-06-01T12:39:00.247Z,33.30
2019-06-01T12:41:29.721Z,34.40
2019-06-01T12:44:01.329Z,34.30
2019-06-01T12:46:30.812Z,35.50
2019-06-01T12:49:00.292Z,36.00
2019-06-01T12:51:29.753Z,35.30
2019-06-01T12:53:59.306Z,34.50
2019-06-01T12:56:29.202Z,34.20
2019-06-01T12:58:58.672Z,34.10
2019-06-01T13:01:28.186Z,33.70
2019-06-01T13:03:57.656Z,34.00
2019-06-01T13:06:27.181Z,33.20
2019-06-01T13:08:56.666Z,33.40
2019-06-01T13:11:26.192Z,32.60
2019-06-01T13:13:55.696Z,33.80
2019-06-01T13:16:25.404Z,34.60
2019-06-01T13:18:54.862Z,34.70
2019-06-01T13:21:27.535Z,35.20
2019-06-01T13:23:55.662Z,35.90
2019-06-01T13:26:25.497Z,34.90
2019-06-01T13:28:55.003Z,33.70
2019-06-01T13:31:24.500Z,33.00
2019-06-01T13:33:54.064Z,32.20
2019-06-01T13:36:23.599Z,31.90
2019-06-01T13:38:53.118Z,32.00
2019-06-01T13:41:22.821Z,32.10
2019-06-01T13:43:53.282Z,32.90
2019-06-01T13:46:23.130Z,32.50
2019-06-01T13:48:53.074Z,31.70
2019-06-01T13:51:23.803Z,31.60
2019-06-01T13:53:54.562Z,31.70
2019-06-01T13:56:24.163Z,32.40
2019-06-01T13:58:54.668Z,33.20
2019-06-01T14:01:24.299Z,33.50
2019-06-01T14:03:54.134Z,33.00
2019-06-01T14:06:24.909Z,32.40
2019-06-01T14:08:55.226Z,31.70
2019-06-01T14:11:24.796Z,31.10
2019-06-01T14:13:54.281Z,30.60
2019-06-01T14:16:43.072Z,30.20
2019-06-01T14:19:12.642Z,30.70
2019-06-01T14:21:42.110Z,31.60
2019-06-01T14:24:11.603Z,33.10
2019-06-01T14:26:41.142Z,34.00
2019-06-01T14:29:10.606Z,33.90
2019-06-01T14:31:40.098Z,34.60
2019-06-01T14:34:09.562Z,35.40
2019-06-01T14:36:39.040Z,35.20
2019-06-01T14:39:09.123Z,35.70
2019-06-01T14:41:38.588Z,35.70
2019-06-01T14:44:08.267Z,35.00
2019-06-01T14:46:52.958Z,33.70
2019-06-01T14:49:08.947Z,33.80
2019-06-01T14:51:57.897Z,34.00
2019-06-01T14:54:27.376Z,34.30
2019-06-01T14:56:57.913Z,34.70
2019-06-01T14:59:28.381Z,34.30
2019-06-01T15:01:58.434Z,34.70
2019-06-01T15:04:28.015Z,34.90
2019-06-01T15:06:58.574Z,34.90
2019-06-01T15:09:29.800Z,34.50
2019-06-01T15:11:59.296Z,34.00
2019-06-01T15:14:28.852Z,34.60
2019-06-01T15:16:58.285Z,34.80
2019-06-01T15:19:27.783Z,34.60
2019-06-01T15:21:58.198Z,35.20
2019-06-01T15:24:27.829Z,34.40
2019-06-01T15:26:57.350Z,34.60
2019-06-01T15:29:26.822Z,34.30
2019-06-01T15:31:56.336Z,34.20
2019-06-01T15:34:25.853Z,33.20
2019-06-01T15:36:55.608Z,33.20
2019-06-01T15:39:25.718Z,33.00
2019-06-01T15:41:55.333Z,33.10
2019-06-01T15:44:24.848Z,33.10
2019-06-01T15:46:55.562Z,33.00
2019-06-01T15:49:44.759Z,31.70
2019-06-01T15:52:14.220Z,31.00
2019-06-01T15:54:46.807Z,30.60
2019-06-01T15:57:16.377Z,30.20
2019-06-01T16:00:07.436Z,30.30
2019-06-01T16:02:36.921Z,30.50
2019-06-01T16:05:08.257Z,30.50
2019-06-01T16:07:37.799Z,30.80
2019-06-01T16:10:08.804Z,30.60
2019-06-01T16:12:57.696Z,30.60
2019-06-01T16:15:27.194Z,30.60
2019-06-01T16:17:57.866Z,29.60
2019-06-01T16:20:27.619Z,29.70
2019-06-01T16:22:58.075Z,30.10
2019-06-01T16:25:27.620Z,30.00
2019-06-01T16:27:57.135Z,30.00
2019-06-01T16:30:27.149Z,29.60
2019-06-01T16:32:58.519Z,29.10
2019-06-01T16:35:28.103Z,28.90
2019-06-01T16:37:58.825Z,28.80
2019-06-01T16:40:28.472Z,28.70
2019-06-01T16:42:57.991Z,28.70
2019-06-01T16:45:27.512Z,28.90
2019-06-01T16:47:57.402Z,28.80
2019-06-01T16:50:26.971Z,28.90
2019-06-01T16:52:57.911Z,28.30
2019-06-01T16:55:27.459Z,28.40
2019-06-01T16:57:57.046Z,28.20
2019-06-01T17:00:27.618Z,28.20
2019-06-01T17:02:58.390Z,28.30
2019-06-01T17:05:27.996Z,28.30
2019-06-01T17:07:58.656Z,28.40
2019-06-01T17:10:28.343Z,28.20
2019-06-01T17:13:00.232Z,28.30
2019-06-01T17:15:29.300Z,28.30
2019-06-01T17:18:03.008Z,27.70
2019-06-01T17:20:52.077Z,27.50
2019-06-01T17:23:26.752Z,27.60
2019-06-01T17:25:52.855Z,27.80
2019-06-01T17:28:22.393Z,27.60
2019-06-01T17:30:52.038Z,27.60
2019-06-01T17:33:21.540Z,27.40
2019-06-01T17:35:51.051Z,27.40
2019-06-01T17:38:20.541Z,27.30
2019-06-01T17:40:50.001Z,27.30
2019-06-01T17:43:19.532Z,27.20
2019-06-01T17:45:49.360Z,27.00
2019-06-01T17:48:26.568Z,27.20
2019-06-01T17:50:55.966Z,27.30
2019-06-01T17:53:25.539Z,27.00
2019-06-01T17:55:55.070Z,26.80
2019-06-01T17:58:24.789Z,26.80
2019-06-01T18:00:54.452Z,27.00
2019-06-01T18:03:23.962Z,27.00
2019-06-01T18:05:55.358Z,26.80
2019-06-01T18:08:24.858Z,26.80
2019-06-01T18:10:55.217Z,26.90
2019-06-01T18:13:26.441Z,26.70
2019-06-01T18:15:55.943Z,26.60
2019-06-01T18:18:25.671Z,26.50
2019-06-01T18:20:55.383Z,26.60
2019-06-01T18:23:25.050Z,26.60
2019-06-01T18:25:54.703Z,26.50
2019-06-01T18:28:24.257Z,26.50
2019-06-01T18:30:53.814Z,26.60
2019-06-01T18:33:23.522Z,26.60
2019-06-01T18:35:53.237Z,26.40
2019-06-01T18:38:22.720Z,26.20
2019-06-01T18:41:06.473Z,25.90
2019-06-01T18:43:23.775Z,25.80
2019-06-01T18:45:53.270Z,25.50
2019-06-01T18:48:23.329Z,25.40
2019-06-01T18:50:53.065Z,25.30
2019-06-01T18:53:22.656Z,25.40
2019-06-01T18:55:52.103Z,25.40
2019-06-01T18:58:21.769Z,25.20
2019-06-01T19:00:51.350Z,25.00
2019-06-01T19:03:20.810Z,24.70
2019-06-01T19:05:50.334Z,24.30
2019-06-01T19:08:19.803Z,24.00
2019-06-01T19:10:51.113Z,23.80
2019-06-01T19:13:20.847Z,23.70
2019-06-01T19:15:50.325Z,23.60
2019-06-01T19:18:19.798Z,23.40
2019-06-01T19:20:49.293Z,23.30
2019-06-01T19:23:21.835Z,23.20
2019-06-01T19:25:50.067Z,23.10
2019-06-01T19:28:19.686Z,23.00
2019-06-01T19:30:49.395Z,23.00
2019-06-01T19:33:19.615Z,22.90
2019-06-01T19:35:50.159Z,22.80
2019-06-01T19:38:21.279Z,22.70
2019-06-01T19:40:50.764Z,22.60
2019-06-01T19:43:20.275Z,22.40
2019-06-01T19:45:49.775Z,22.30
2019-06-01T19:48:19.451Z,22.20
2019-06-01T19:50:49.119Z,22.10
2019-06-01T19:53:18.894Z,22.00
2019-06-01T19:55:48.549Z,21.90
2019-06-01T19:58:19.110Z,21.80
2019-06-01T20:00:48.921Z,21.60
2019-06-01T20:03:21.886Z,21.40
2019-06-01T20:05:49.992Z,21.20
2019-06-01T20:08:19.465Z,21.00
2019-06-01T20:10:48.927Z,21.00
2019-06-01T20:13:19.938Z,20.90
2019-06-01T20:15:49.410Z,20.70
2019-06-01T20:18:19.148Z,20.50
2019-06-01T20:20:48.760Z,20.40
2019-06-01T20:23:19.535Z,20.30
2019-06-01T20:25:49.235Z,20.30
2019-06-01T20:28:19.696Z,20.20
2019-06-01T20:30:49.314Z,20.20
2019-06-01T20:33:20.291Z,20.20
2019-06-01T20:35:50.098Z,20.10
2019-06-01T20:38:20.593Z,20.00
2019-06-01T20:40:50.199Z,19.80
2019-06-01T20:43:20.812Z,19.70
2019-06-01T20:45:50.672Z,19.60
2019-06-01T20:48:20.896Z,19.50
2019-06-01T20:50:50.579Z,19.50
2019-06-01T20:53:21.073Z,19.40
2019-06-01T20:55:50.692Z,19.30
2019-06-01T20:58:22.908Z,19.30
2019-06-01T21:00:51.685Z,19.20
2019-06-01T21:03:21.914Z,19.10
2019-06-01T21:05:52.446Z,19.10
2019-06-01T21:08:22.440Z,18.90
2019-06-01T21:10:51.868Z,18.90
2019-06-01T21:13:22.306Z,18.90
2019-06-01T21:15:52.008Z,18.80
2019-06-01T21:18:22.585Z,18.70
2019-06-01T21:20:52.404Z,18.70
2019-06-01T21:23:23.034Z,18.60
2019-06-01T21:26:01.806Z,18.60
2019-06-01T21:28:31.328Z,18.50
2019-06-01T21:31:00.850Z,18.40
2019-06-01T21:33:36.349Z,18.20
2019-06-01T21:36:07.978Z,18.10
2019-06-01T21:38:38.353Z,18.00
2019-06-01T21:41:08.161Z,17.90
2019-06-01T21:43:37.617Z,18.00
2019-06-01T21:46:07.185Z,17.90
2019-06-01T21:48:36.899Z,18.00
2019-06-01T21:51:06.411Z,18.00
2019-06-01T21:53:36.083Z,18.00
2019-06-01T21:56:05.797Z,18.00
2019-06-01T21:58:35.297Z,17.90
2019-06-01T22:01:06.513Z,17.90
2019-06-01T22:03:36.380Z,17.80
2019-06-01T22:06:06.378Z,17.60
2019-06-01T22:08:35.837Z,17.60
2019-06-01T22:11:05.438Z,17.50
2019-06-01T22:13:34.925Z,17.50
2019-06-01T22:16:04.623Z,17.50
2019-06-01T22:18:34.093Z,17.40
2019-06-01T22:21:03.565Z,17.20
2019-06-01T22:23:33.031Z,17.20
2019-06-01T22:26:02.682Z,17.10
2019-06-01T22:28:32.147Z,17.10
2019-06-01T22:31:01.679Z,17.00
2019-06-01T22:33:31.187Z,17.10
2019-06-01T22:36:00.680Z,17.00
2019-06-01T22:38:30.169Z,17.00
2019-06-01T22:40:59.670Z,17.00
2019-06-01T22:43:43.452Z,16.90
2019-06-01T22:46:00.345Z,16.80
2019-06-01T22:48:29.889Z,16.70
2019-06-01T22:50:59.345Z,16.70
2019-06-01T22:53:29.508Z,16.60
2019-06-01T22:55:59.242Z,16.60
2019-06-01T22:58:29.634Z,16.60
2019-06-01T23:00:59.359Z,16.60
2019-06-01T23:03:30.112Z,16.50
2019-06-01T23:05:59.749Z,16.50
2019-06-01T23:08:29.516Z,16.50
2019-06-01T23:10:59.176Z,16.40
2019-06-01T23:13:28.666Z,16.30
2019-06-01T23:15:58.257Z,16.30
2019-06-01T23:18:28.029Z,16.30
2019-06-01T23:20:57.618Z,16.20
2019-06-01T23:23:28.090Z,16.30
2019-06-01T23:25:57.830Z,16.20
2019-06-01T23:28:28.586Z,16.20
2019-06-01T23:30:58.252Z,16.10
2019-06-01T23:33:28.880Z,16.00
2019-06-01T23:35:58.527Z,16.00
2019-06-01T23:38:40.078Z,15.90
2019-06-01T23:41:15.368Z,16.00
2019-06-01T23:43:44.812Z,15.90
2019-06-01T23:46:14.326Z,15.80
2019-06-01T23:49:03.144Z,15.80
2019-06-01T23:51:33.956Z,15.70
2019-06-01T23:54:03.619Z,15.70
2019-06-01T23:56:34.665Z,15.60
2019-06-01T23:59:24.067Z,15.60
